sensor_id;sensor_type;location;lat;lon;timestamp;temperature;humidity
42663;DHT22;44330;51.360;6.686;2022-07-17T00:01:32;14.80;99.90
42663;DHT22;44330;51.360;6.686;2022-07-17T00:03:57;14.80;1.00
42663;DHT22;44330;51.360;6.686;2022-07-17T00:06:23;14.70;23.40
42663;DHT22;44330;51.360;6.686;2022-07-17T00:08:48;14.70;99.90
42663;DHT22;44330;51.360;6.686;2022-07-17T00:11:14;14.70;99.90
42663;DHT22;44330;51.360;6.686;2022-07-17T00:13:39;14.70;99.90
42663;DHT22;44330;51.360;6.686;2022-07-17T00:16:06;14.70;99.90
42663;DHT22;44330;51.360;6.686;2022-07-17T00:18:31;14.70;17.60
42663;DHT22;44330;51.360;6.686;2022-07-17T00:20:57;14.60;98.40
42663;DHT22;44330;51.360;6.686;2022-07-17T00:23:22;14.60;80.20
42663;DHT22;44330;51.360;6.686;2022-07-17T00:25:48;14.60;99.90
42663;DHT22;44330;51.360;6.686;2022-07-17T00:28:13;14.50;99.90
42663;DHT22;44330;51.360;6.686;2022-07-17T00:30:39;14.50;1.00
42663;DHT22;44330;51.360;6.686;2022-07-17T00:33:05;14.40;39.80
42663;DHT22;44330;51.360;6.686;2022-07-17T00:35:30;14.40;99.90
42663;DHT22;44330;51.360;6.686;2022-07-17T00:37:56;14.40;99.90
42663;DHT22;44330;51.360;6.686;2022-07-17T00:40:23;14.30;35.80
42663;DHT22;44330;51.360;6.686;2022-07-17T00:42:50;14.30;1.00
42663;DHT22;44330;51.360;6.686;2022-07-17T00:45:16;14.30;1.00
42663;DHT22;44330;51.360;6.686;2022-07-17T00:50:16;14.20;99.90
42663;DHT22;44330;51.360;6.686;2022-07-17T00:52:42;14.20;99.90
42663;DHT22;44330;51.360;6.686;2022-07-17T00:55:08;14.10;99.90
42663;DHT22;44330;51.360;6.686;2022-07-17T00:57:35;14.10;99.90
42663;DHT22;44330;51.360;6.686;2022-07-17T01:00:03;14.10;99.90
42663;DHT22;44330;51.360;6.686;2022-07-17T01:02:34;14.10;99.90
42663;DHT22;44330;51.360;6.686;2022-07-17T01:04:59;14.00;99.90
42663;DHT22;44330;51.360;6.686;2022-07-17T01:07:25;14.00;1.00
42663;DHT22;44330;51.360;6.686;2022-07-17T01:09:50;14.00;99.90
42663;DHT22;44330;51.360;6.686;2022-07-17T01:12:16;13.90;99.90
42663;DHT22;44330;51.360;6.686;2022-07-17T01:14:42;13.90;99.90
42663;DHT22;44330;51.360;6.686;2022-07-17T01:17:09;13.80;99.90
42663;DHT22;44330;51.360;6.686;2022-07-17T01:19:35;13.80;99.90
42663;DHT22;44330;51.360;6.686;2022-07-17T01:22:00;13.80;1.00
42663;DHT22;44330;51.360;6.686;2022-07-17T01:24:26;13.70;1.00
42663;DHT22;44330;51.360;6.686;2022-07-17T01:26:51;13.70;99.90
42663;DHT22;44330;51.360;6.686;2022-07-17T01:29:17;13.70;99.90
42663;DHT22;44330;51.360;6.686;2022-07-17T01:31:43;13.60;99.90
42663;DHT22;44330;51.360;6.686;2022-07-17T01:34:10;13.60;1.00
42663;DHT22;44330;51.360;6.686;2022-07-17T01:36:38;13.60;99.90
42663;DHT22;44330;51.360;6.686;2022-07-17T01:39:04;13.50;1.00
42663;DHT22;44330;51.360;6.686;2022-07-17T01:41:29;13.50;1.00
42663;DHT22;44330;51.360;6.686;2022-07-17T01:43:55;13.40;99.90
42663;DHT22;44330;51.360;6.686;2022-07-17T01:46:21;13.40;99.90
42663;DHT22;44330;51.360;6.686;2022-07-17T01:48:46;13.30;1.00
42663;DHT22;44330;51.360;6.686;2022-07-17T01:51:12;13.30;1.00
42663;DHT22;44330;51.360;6.686;2022-07-17T01:53:38;13.30;1.00
42663;DHT22;44330;51.360;6.686;2022-07-17T01:56:03;13.20;1.00
42663;DHT22;44330;51.360;6.686;2022-07-17T01:58:29;13.20;45.00
42663;DHT22;44330;51.360;6.686;2022-07-17T02:00:55;13.20;47.60
42663;DHT22;44330;51.360;6.686;2022-07-17T02:03:21;13.20;78.00
42663;DHT22;44330;51.360;6.686;2022-07-17T02:05:46;13.20;97.40
42663;DHT22;44330;51.360;6.686;2022-07-17T02:08:12;13.20;91.20
42663;DHT22;44330;51.360;6.686;2022-07-17T02:10:38;13.20;79.00
42663;DHT22;44330;51.360;6.686;2022-07-17T02:13:04;13.20;92.70
42663;DHT22;44330;51.360;6.686;2022-07-17T02:15:29;13.20;99.90
42663;DHT22;44330;51.360;6.686;2022-07-17T02:17:56;13.10;99.90
42663;DHT22;44330;51.360;6.686;2022-07-17T02:20:22;13.20;99.90
42663;DHT22;44330;51.360;6.686;2022-07-17T02:22:48;13.10;99.90
42663;DHT22;44330;51.360;6.686;2022-07-17T02:25:13;13.10;99.90
42663;DHT22;44330;51.360;6.686;2022-07-17T02:27:39;13.10;99.90
42663;DHT22;44330;51.360;6.686;2022-07-17T02:30:10;13.20;99.90
42663;DHT22;44330;51.360;6.686;2022-07-17T02:32:36;13.20;99.90
42663;DHT22;44330;51.360;6.686;2022-07-17T02:35:02;13.10;99.90
42663;DHT22;44330;51.360;6.686;2022-07-17T02:37:27;13.10;99.90
42663;DHT22;44330;51.360;6.686;2022-07-17T02:39:53;13.10;99.90
42663;DHT22;44330;51.360;6.686;2022-07-17T02:42:23;13.10;99.90
42663;DHT22;44330;51.360;6.686;2022-07-17T02:44:49;13.10;99.90
42663;DHT22;44330;51.360;6.686;2022-07-17T02:47:28;13.10;99.90
42663;DHT22;44330;51.360;6.686;2022-07-17T02:49:54;13.00;99.90
42663;DHT22;44330;51.360;6.686;2022-07-17T02:52:20;13.00;99.90
42663;DHT22;44330;51.360;6.686;2022-07-17T02:54:46;12.90;99.90
42663;DHT22;44330;51.360;6.686;2022-07-17T02:57:13;12.90;99.90
42663;DHT22;44330;51.360;6.686;2022-07-17T02:59:39;12.80;99.90
42663;DHT22;44330;51.360;6.686;2022-07-17T03:02:05;12.80;99.90
42663;DHT22;44330;51.360;6.686;2022-07-17T03:04:30;12.80;99.90
42663;DHT22;44330;51.360;6.686;2022-07-17T03:06:56;12.70;99.90
42663;DHT22;44330;51.360;6.686;2022-07-17T03:09:22;12.70;99.90
42663;DHT22;44330;51.360;6.686;2022-07-17T03:11:47;12.70;99.90
42663;DHT22;44330;51.360;6.686;2022-07-17T03:14:13;12.60;99.90
42663;DHT22;44330;51.360;6.686;2022-07-17T03:16:38;12.60;99.90
42663;DHT22;44330;51.360;6.686;2022-07-17T03:19:04;12.60;99.90
42663;DHT22;44330;51.360;6.686;2022-07-17T03:21:29;12.50;1.00
42663;DHT22;44330;51.360;6.686;2022-07-17T03:23:55;12.50;1.00
42663;DHT22;44330;51.360;6.686;2022-07-17T03:26:20;12.50;1.00
42663;DHT22;44330;51.360;6.686;2022-07-17T03:28:46;12.50;1.00
42663;DHT22;44330;51.360;6.686;2022-07-17T03:31:11;12.40;1.00
42663;DHT22;44330;51.360;6.686;2022-07-17T03:33:37;12.40;1.00
42663;DHT22;44330;51.360;6.686;2022-07-17T03:36:03;12.40;1.00
42663;DHT22;44330;51.360;6.686;2022-07-17T03:38:28;12.40;1.00
42663;DHT22;44330;51.360;6.686;2022-07-17T03:40:54;12.30;1.00
42663;DHT22;44330;51.360;6.686;2022-07-17T03:43:20;12.30;1.00
42663;DHT22;44330;51.360;6.686;2022-07-17T03:45:45;12.30;1.00
42663;DHT22;44330;51.360;6.686;2022-07-17T03:48:11;12.30;1.00
42663;DHT22;44330;51.360;6.686;2022-07-17T03:50:36;12.30;1.00
42663;DHT22;44330;51.360;6.686;2022-07-17T03:53:05;12.20;1.00
42663;DHT22;44330;51.360;6.686;2022-07-17T03:55:31;12.20;1.00
42663;DHT22;44330;51.360;6.686;2022-07-17T03:57:56;12.20;1.00
42663;DHT22;44330;51.360;6.686;2022-07-17T04:00:22;12.20;1.00
42663;DHT22;44330;51.360;6.686;2022-07-17T04:02:47;12.20;1.00
42663;DHT22;44330;51.360;6.686;2022-07-17T04:05:13;12.10;1.00
42663;DHT22;44330;51.360;6.686;2022-07-17T04:07:40;12.10;1.00
42663;DHT22;44330;51.360;6.686;2022-07-17T04:10:08;12.10;1.00
42663;DHT22;44330;51.360;6.686;2022-07-17T04:12:35;12.10;1.00
42663;DHT22;44330;51.360;6.686;2022-07-17T04:15:01;12.10;1.00
42663;DHT22;44330;51.360;6.686;2022-07-17T04:17:27;12.10;1.00
42663;DHT22;44330;51.360;6.686;2022-07-17T04:19:53;12.20;1.00
42663;DHT22;44330;51.360;6.686;2022-07-17T04:22:19;12.20;1.00
42663;DHT22;44330;51.360;6.686;2022-07-17T04:24:45;12.20;1.00
42663;DHT22;44330;51.360;6.686;2022-07-17T04:27:11;12.20;1.00
42663;DHT22;44330;51.360;6.686;2022-07-17T04:29:37;12.20;1.80
42663;DHT22;44330;51.360;6.686;2022-07-17T04:32:03;12.30;5.20
42663;DHT22;44330;51.360;6.686;2022-07-17T04:34:29;12.30;5.40
42663;DHT22;44330;51.360;6.686;2022-07-17T04:36:55;12.30;1.20
42663;DHT22;44330;51.360;6.686;2022-07-17T04:39:20;12.40;1.00
42663;DHT22;44330;51.360;6.686;2022-07-17T04:41:46;12.50;1.00
42663;DHT22;44330;51.360;6.686;2022-07-17T04:44:12;12.60;1.00
42663;DHT22;44330;51.360;6.686;2022-07-17T04:46:38;12.70;1.00
42663;DHT22;44330;51.360;6.686;2022-07-17T04:49:03;12.80;1.00
42663;DHT22;44330;51.360;6.686;2022-07-17T04:51:29;12.80;1.00
42663;DHT22;44330;51.360;6.686;2022-07-17T04:53:54;12.90;1.00
42663;DHT22;44330;51.360;6.686;2022-07-17T04:56:20;12.90;1.00
42663;DHT22;44330;51.360;6.686;2022-07-17T04:58:45;12.90;1.00
42663;DHT22;44330;51.360;6.686;2022-07-17T05:01:11;13.00;1.00
42663;DHT22;44330;51.360;6.686;2022-07-17T05:03:36;13.00;99.90
42663;DHT22;44330;51.360;6.686;2022-07-17T05:06:03;13.20;99.90
42663;DHT22;44330;51.360;6.686;2022-07-17T05:08:28;13.20;99.90
42663;DHT22;44330;51.360;6.686;2022-07-17T05:10:54;13.20;99.90
42663;DHT22;44330;51.360;6.686;2022-07-17T05:13:19;13.30;99.90
42663;DHT22;44330;51.360;6.686;2022-07-17T05:15:45;13.30;99.90
42663;DHT22;44330;51.360;6.686;2022-07-17T05:18:11;13.40;99.90
42663;DHT22;44330;51.360;6.686;2022-07-17T05:20:39;13.40;99.90
42663;DHT22;44330;51.360;6.686;2022-07-17T05:23:05;13.60;99.90
42663;DHT22;44330;51.360;6.686;2022-07-17T05:25:30;13.70;99.90
42663;DHT22;44330;51.360;6.686;2022-07-17T05:27:56;13.90;1.00
42663;DHT22;44330;51.360;6.686;2022-07-17T05:30:21;14.00;1.00
42663;DHT22;44330;51.360;6.686;2022-07-17T05:32:47;14.20;99.90
42663;DHT22;44330;51.360;6.686;2022-07-17T05:35:12;14.30;99.90
42663;DHT22;44330;51.360;6.686;2022-07-17T05:37:38;14.40;99.90
42663;DHT22;44330;51.360;6.686;2022-07-17T05:40:04;14.50;99.90
42663;DHT22;44330;51.360;6.686;2022-07-17T05:42:30;14.60;99.90
42663;DHT22;44330;51.360;6.686;2022-07-17T05:44:55;14.60;99.90
42663;DHT22;44330;51.360;6.686;2022-07-17T05:47:21;14.70;99.90
42663;DHT22;44330;51.360;6.686;2022-07-17T05:49:46;14.80;99.90
42663;DHT22;44330;51.360;6.686;2022-07-17T05:52:12;14.90;86.50
42663;DHT22;44330;51.360;6.686;2022-07-17T05:54:37;15.00;99.90
42663;DHT22;44330;51.360;6.686;2022-07-17T05:57:03;15.10;99.90
42663;DHT22;44330;51.360;6.686;2022-07-17T05:59:29;15.20;99.90
42663;DHT22;44330;51.360;6.686;2022-07-17T06:01:54;15.30;99.90
42663;DHT22;44330;51.360;6.686;2022-07-17T06:04:20;15.50;99.90
42663;DHT22;44330;51.360;6.686;2022-07-17T06:06:45;15.60;1.00
42663;DHT22;44330;51.360;6.686;2022-07-17T06:09:11;15.60;99.90
42663;DHT22;44330;51.360;6.686;2022-07-17T06:11:36;15.70;99.90
42663;DHT22;44330;51.360;6.686;2022-07-17T06:14:02;15.80;99.90
42663;DHT22;44330;51.360;6.686;2022-07-17T06:16:28;16.00;1.00
42663;DHT22;44330;51.360;6.686;2022-07-17T06:18:53;16.20;99.90
42663;DHT22;44330;51.360;6.686;2022-07-17T06:21:19;16.40;99.90
42663;DHT22;44330;51.360;6.686;2022-07-17T06:23:44;16.50;99.90
42663;DHT22;44330;51.360;6.686;2022-07-17T06:26:11;16.70;99.90
42663;DHT22;44330;51.360;6.686;2022-07-17T06:28:36;17.00;99.90
42663;DHT22;44330;51.360;6.686;2022-07-17T06:31:02;17.20;99.90
42663;DHT22;44330;51.360;6.686;2022-07-17T06:33:27;17.40;99.90
42663;DHT22;44330;51.360;6.686;2022-07-17T06:35:53;17.60;99.90
42663;DHT22;44330;51.360;6.686;2022-07-17T06:38:18;17.70;35.50
42663;DHT22;44330;51.360;6.686;2022-07-17T06:40:44;18.00;1.00
42663;DHT22;44330;51.360;6.686;2022-07-17T06:43:10;18.20;1.00
42663;DHT22;44330;51.360;6.686;2022-07-17T06:45:35;18.30;1.00
42663;DHT22;44330;51.360;6.686;2022-07-17T06:48:01;18.50;99.90
42663;DHT22;44330;51.360;6.686;2022-07-17T06:50:27;18.70;99.90
42663;DHT22;44330;51.360;6.686;2022-07-17T06:52:53;18.80;99.90
42663;DHT22;44330;51.360;6.686;2022-07-17T06:55:18;18.90;99.90
42663;DHT22;44330;51.360;6.686;2022-07-17T06:57:44;19.10;99.90
42663;DHT22;44330;51.360;6.686;2022-07-17T07:00:10;19.30;99.90
42663;DHT22;44330;51.360;6.686;2022-07-17T07:02:36;19.50;99.90
42663;DHT22;44330;51.360;6.686;2022-07-17T07:05:02;19.60;99.90
42663;DHT22;44330;51.360;6.686;2022-07-17T07:07:28;19.80;99.90
42663;DHT22;44330;51.360;6.686;2022-07-17T07:09:53;20.00;99.90
42663;DHT22;44330;51.360;6.686;2022-07-17T07:12:19;20.20;99.90
42663;DHT22;44330;51.360;6.686;2022-07-17T07:14:44;20.30;99.90
42663;DHT22;44330;51.360;6.686;2022-07-17T07:17:10;20.50;99.90
42663;DHT22;44330;51.360;6.686;2022-07-17T07:19:35;20.60;99.90
42663;DHT22;44330;51.360;6.686;2022-07-17T07:22:01;20.90;99.90
42663;DHT22;44330;51.360;6.686;2022-07-17T07:24:26;21.10;95.40
42663;DHT22;44330;51.360;6.686;2022-07-17T07:26:52;21.10;84.20
42663;DHT22;44330;51.360;6.686;2022-07-17T07:29:17;21.30;81.90
42663;DHT22;44330;51.360;6.686;2022-07-17T07:31:43;21.50;61.30
42663;DHT22;44330;51.360;6.686;2022-07-17T07:34:09;21.70;35.70
42663;DHT22;44330;51.360;6.686;2022-07-17T07:36:34;21.80;28.70
42663;DHT22;44330;51.360;6.686;2022-07-17T07:39:00;22.00;8.50
42663;DHT22;44330;51.360;6.686;2022-07-17T07:41:25;22.20;1.00
42663;DHT22;44330;51.360;6.686;2022-07-17T07:43:51;22.50;2.80
42663;DHT22;44330;51.360;6.686;2022-07-17T07:46:17;22.80;1.00
42663;DHT22;44330;51.360;6.686;2022-07-17T07:48:42;22.90;1.00
42663;DHT22;44330;51.360;6.686;2022-07-17T07:51:08;22.90;1.00
42663;DHT22;44330;51.360;6.686;2022-07-17T07:53:33;23.10;1.00
42663;DHT22;44330;51.360;6.686;2022-07-17T07:55:59;23.30;1.00
42663;DHT22;44330;51.360;6.686;2022-07-17T07:58:24;23.40;1.00
42663;DHT22;44330;51.360;6.686;2022-07-17T08:00:50;23.60;1.00
42663;DHT22;44330;51.360;6.686;2022-07-17T08:03:16;23.90;1.00
42663;DHT22;44330;51.360;6.686;2022-07-17T08:05:42;24.00;1.00
42663;DHT22;44330;51.360;6.686;2022-07-17T08:08:08;24.30;1.00
42663;DHT22;44330;51.360;6.686;2022-07-17T08:10:34;24.50;99.90
42663;DHT22;44330;51.360;6.686;2022-07-17T08:13:00;24.70;99.90
42663;DHT22;44330;51.360;6.686;2022-07-17T08:15:26;24.90;99.90
42663;DHT22;44330;51.360;6.686;2022-07-17T08:17:52;25.10;99.90
42663;DHT22;44330;51.360;6.686;2022-07-17T08:20:19;25.30;99.90
42663;DHT22;44330;51.360;6.686;2022-07-17T08:22:47;25.40;99.90
42663;DHT22;44330;51.360;6.686;2022-07-17T08:25:13;25.50;99.90
42663;DHT22;44330;51.360;6.686;2022-07-17T08:27:40;25.70;99.90
42663;DHT22;44330;51.360;6.686;2022-07-17T08:30:07;25.90;99.90
42663;DHT22;44330;51.360;6.686;2022-07-17T08:32:35;26.00;99.90
42663;DHT22;44330;51.360;6.686;2022-07-17T08:35:01;25.70;99.90
42663;DHT22;44330;51.360;6.686;2022-07-17T08:37:29;24.50;99.90
42663;DHT22;44330;51.360;6.686;2022-07-17T08:39:55;24.60;99.90
42663;DHT22;44330;51.360;6.686;2022-07-17T08:42:21;24.90;99.90
42663;DHT22;44330;51.360;6.686;2022-07-17T08:44:47;25.40;99.90
42663;DHT22;44330;51.360;6.686;2022-07-17T08:47:14;25.90;99.90
42663;DHT22;44330;51.360;6.686;2022-07-17T08:49:49;26.00;99.90
42663;DHT22;44330;51.360;6.686;2022-07-17T08:52:15;26.20;99.90
42663;DHT22;44330;51.360;6.686;2022-07-17T08:54:41;26.50;99.90
42663;DHT22;44330;51.360;6.686;2022-07-17T08:57:08;26.70;99.90
42663;DHT22;44330;51.360;6.686;2022-07-17T08:59:34;26.90;99.90
42663;DHT22;44330;51.360;6.686;2022-07-17T09:02:00;27.10;99.90
42663;DHT22;44330;51.360;6.686;2022-07-17T09:04:27;27.20;99.90
42663;DHT22;44330;51.360;6.686;2022-07-17T09:07:04;27.20;99.90
42663;DHT22;44330;51.360;6.686;2022-07-17T09:09:31;27.30;99.90
42663;DHT22;44330;51.360;6.686;2022-07-17T09:11:57;27.50;99.90
42663;DHT22;44330;51.360;6.686;2022-07-17T09:14:40;27.70;99.90
42663;DHT22;44330;51.360;6.686;2022-07-17T09:17:08;27.80;99.90
42663;DHT22;44330;51.360;6.686;2022-07-17T09:19:36;27.80;99.90
42663;DHT22;44330;51.360;6.686;2022-07-17T09:22:18;28.00;99.90
42663;DHT22;44330;51.360;6.686;2022-07-17T09:24:56;28.20;99.90
42663;DHT22;44330;51.360;6.686;2022-07-17T09:29:57;28.50;99.90
42663;DHT22;44330;51.360;6.686;2022-07-17T09:32:27;28.50;99.90
42663;DHT22;44330;51.360;6.686;2022-07-17T09:34:55;28.60;99.90
42663;DHT22;44330;51.360;6.686;2022-07-17T09:37:30;28.70;99.90
42663;DHT22;44330;51.360;6.686;2022-07-17T09:39:57;28.70;99.90
42663;DHT22;44330;51.360;6.686;2022-07-17T09:42:30;28.70;99.90
42663;DHT22;44330;51.360;6.686;2022-07-17T09:45:07;28.80;99.90
42663;DHT22;44330;51.360;6.686;2022-07-17T09:47:36;29.10;99.90
42663;DHT22;44330;51.360;6.686;2022-07-17T09:50:04;29.20;99.90
42663;DHT22;44330;51.360;6.686;2022-07-17T09:52:32;29.30;99.90
42663;DHT22;44330;51.360;6.686;2022-07-17T09:54:59;29.40;99.90
42663;DHT22;44330;51.360;6.686;2022-07-17T09:57:30;29.30;99.90
42663;DHT22;44330;51.360;6.686;2022-07-17T09:59:59;29.30;99.90
42663;DHT22;44330;51.360;6.686;2022-07-17T10:02:26;29.30;99.90
42663;DHT22;44330;51.360;6.686;2022-07-17T10:04:52;28.90;99.90
42663;DHT22;44330;51.360;6.686;2022-07-17T10:07:18;28.60;99.90
42663;DHT22;44330;51.360;6.686;2022-07-17T10:09:44;27.70;99.90
42663;DHT22;44330;51.360;6.686;2022-07-17T10:12:10;27.40;99.90
42663;DHT22;44330;51.360;6.686;2022-07-17T10:14:36;27.40;99.90
42663;DHT22;44330;51.360;6.686;2022-07-17T10:17:12;27.70;99.90
42663;DHT22;44330;51.360;6.686;2022-07-17T10:19:55;28.10;99.90
42663;DHT22;44330;51.360;6.686;2022-07-17T10:22:21;28.30;99.90
42663;DHT22;44330;51.360;6.686;2022-07-17T10:24:56;28.70;99.90
42663;DHT22;44330;51.360;6.686;2022-07-17T10:27:26;28.90;99.90
42663;DHT22;44330;51.360;6.686;2022-07-17T10:30:07;29.30;99.90
42663;DHT22;44330;51.360;6.686;2022-07-17T10:32:35;29.30;99.90
42663;DHT22;44330;51.360;6.686;2022-07-17T10:40:19;26.70;99.90
42663;DHT22;44330;51.360;6.686;2022-07-17T10:42:56;27.20;99.90
42663;DHT22;44330;51.360;6.686;2022-07-17T10:45:31;27.80;99.90
42663;DHT22;44330;51.360;6.686;2022-07-17T10:48:04;28.40;99.90
42663;DHT22;44330;51.360;6.686;2022-07-17T10:50:34;28.70;99.90
42663;DHT22;44330;51.360;6.686;2022-07-17T10:53:13;28.60;99.90
42663;DHT22;44330;51.360;6.686;2022-07-17T10:55:44;29.00;99.90
42663;DHT22;44330;51.360;6.686;2022-07-17T10:58:29;29.40;99.90
42663;DHT22;44330;51.360;6.686;2022-07-17T11:03:30;30.20;99.90
42663;DHT22;44330;51.360;6.686;2022-07-17T11:06:06;29.70;99.90
42663;DHT22;44330;51.360;6.686;2022-07-17T11:08:56;29.30;99.90
42663;DHT22;44330;51.360;6.686;2022-07-17T11:11:23;29.40;99.90
42663;DHT22;44330;51.360;6.686;2022-07-17T11:14:15;29.80;99.90
42663;DHT22;44330;51.360;6.686;2022-07-17T11:21:57;28.70;99.90
42663;DHT22;44330;51.360;6.686;2022-07-17T11:24:23;27.70;99.90
42663;DHT22;44330;51.360;6.686;2022-07-17T11:26:51;28.10;99.90
42663;DHT22;44330;51.360;6.686;2022-07-17T11:29:18;28.70;99.90
42663;DHT22;44330;51.360;6.686;2022-07-17T11:31:44;29.50;99.90
42663;DHT22;44330;51.360;6.686;2022-07-17T11:34:10;30.10;99.90
42663;DHT22;44330;51.360;6.686;2022-07-17T11:36:41;29.80;99.90
42663;DHT22;44330;51.360;6.686;2022-07-17T11:39:15;29.50;99.90
42663;DHT22;44330;51.360;6.686;2022-07-17T11:41:46;29.40;99.90
42663;DHT22;44330;51.360;6.686;2022-07-17T11:44:17;29.60;99.90
42663;DHT22;44330;51.360;6.686;2022-07-17T11:46:45;29.80;99.90
42663;DHT22;44330;51.360;6.686;2022-07-17T11:49:22;30.30;99.90
42663;DHT22;44330;51.360;6.686;2022-07-17T11:51:48;30.50;99.90
42663;DHT22;44330;51.360;6.686;2022-07-17T11:54:15;29.30;99.90
42663;DHT22;44330;51.360;6.686;2022-07-17T11:56:50;29.40;99.90
42663;DHT22;44330;51.360;6.686;2022-07-17T11:59:27;29.50;99.90
42663;DHT22;44330;51.360;6.686;2022-07-17T12:01:54;29.40;99.90
42663;DHT22;44330;51.360;6.686;2022-07-17T12:04:20;29.70;99.90
42663;DHT22;44330;51.360;6.686;2022-07-17T12:06:57;29.40;99.90
42663;DHT22;44330;51.360;6.686;2022-07-17T12:09:27;29.20;99.90
42663;DHT22;44330;51.360;6.686;2022-07-17T12:11:53;29.50;99.90
42663;DHT22;44330;51.360;6.686;2022-07-17T12:14:19;29.70;99.90
42663;DHT22;44330;51.360;6.686;2022-07-17T12:16:46;29.40;99.90
42663;DHT22;44330;51.360;6.686;2022-07-17T12:19:17;29.60;99.90
42663;DHT22;44330;51.360;6.686;2022-07-17T12:22:03;28.90;99.90
42663;DHT22;44330;51.360;6.686;2022-07-17T12:24:37;29.00;99.90
42663;DHT22;44330;51.360;6.686;2022-07-17T12:27:06;29.30;99.90
42663;DHT22;44330;51.360;6.686;2022-07-17T12:29:31;29.90;99.90
42663;DHT22;44330;51.360;6.686;2022-07-17T12:32:17;29.70;99.90
42663;DHT22;44330;51.360;6.686;2022-07-17T12:34:46;29.90;99.90
42663;DHT22;44330;51.360;6.686;2022-07-17T12:37:18;30.30;99.90
42663;DHT22;44330;51.360;6.686;2022-07-17T12:39:45;30.30;99.90
42663;DHT22;44330;51.360;6.686;2022-07-17T12:42:12;29.80;99.90
42663;DHT22;44330;51.360;6.686;2022-07-17T12:44:38;30.20;99.90
42663;DHT22;44330;51.360;6.686;2022-07-17T12:47:04;29.80;99.90
42663;DHT22;44330;51.360;6.686;2022-07-17T12:49:30;28.40;99.90
42663;DHT22;44330;51.360;6.686;2022-07-17T12:51:56;28.10;99.90
42663;DHT22;44330;51.360;6.686;2022-07-17T12:54:21;28.40;99.90
42663;DHT22;44330;51.360;6.686;2022-07-17T12:56:47;28.50;99.90
42663;DHT22;44330;51.360;6.686;2022-07-17T12:59:13;28.50;99.90
42663;DHT22;44330;51.360;6.686;2022-07-17T13:01:38;28.50;99.90
42663;DHT22;44330;51.360;6.686;2022-07-17T13:04:04;28.40;99.90
42663;DHT22;44330;51.360;6.686;2022-07-17T13:06:30;28.50;99.90
42663;DHT22;44330;51.360;6.686;2022-07-17T13:08:55;28.50;99.90
42663;DHT22;44330;51.360;6.686;2022-07-17T13:11:21;28.70;99.90
42663;DHT22;44330;51.360;6.686;2022-07-17T13:13:46;29.00;99.90
42663;DHT22;44330;51.360;6.686;2022-07-17T13:16:13;29.00;99.90
42663;DHT22;44330;51.360;6.686;2022-07-17T13:18:39;29.20;99.90
42663;DHT22;44330;51.360;6.686;2022-07-17T13:21:05;29.50;99.90
42663;DHT22;44330;51.360;6.686;2022-07-17T13:23:32;29.80;99.90
42663;DHT22;44330;51.360;6.686;2022-07-17T13:25:59;29.90;99.90
42663;DHT22;44330;51.360;6.686;2022-07-17T13:28:25;30.00;99.90
42663;DHT22;44330;51.360;6.686;2022-07-17T13:30:51;29.10;99.90
42663;DHT22;44330;51.360;6.686;2022-07-17T13:33:17;29.20;99.90
42663;DHT22;44330;51.360;6.686;2022-07-17T13:35:42;29.30;99.90
42663;DHT22;44330;51.360;6.686;2022-07-17T13:38:08;28.80;99.90
42663;DHT22;44330;51.360;6.686;2022-07-17T13:40:35;28.60;99.90
42663;DHT22;44330;51.360;6.686;2022-07-17T13:43:01;28.10;99.90
42663;DHT22;44330;51.360;6.686;2022-07-17T13:45:27;27.60;99.90
42663;DHT22;44330;51.360;6.686;2022-07-17T13:47:54;27.20;99.90
42663;DHT22;44330;51.360;6.686;2022-07-17T13:50:20;27.20;99.90
42663;DHT22;44330;51.360;6.686;2022-07-17T13:52:46;27.50;99.90
42663;DHT22;44330;51.360;6.686;2022-07-17T13:55:12;27.60;99.90
42663;DHT22;44330;51.360;6.686;2022-07-17T13:57:37;27.70;99.90
42663;DHT22;44330;51.360;6.686;2022-07-17T14:00:04;28.20;99.90
42663;DHT22;44330;51.360;6.686;2022-07-17T14:02:30;28.90;99.90
42663;DHT22;44330;51.360;6.686;2022-07-17T14:04:56;29.20;99.90
42663;DHT22;44330;51.360;6.686;2022-07-17T14:07:21;29.50;99.90
42663;DHT22;44330;51.360;6.686;2022-07-17T14:09:47;29.00;99.90
42663;DHT22;44330;51.360;6.686;2022-07-17T14:12:12;29.30;99.90
42663;DHT22;44330;51.360;6.686;2022-07-17T14:14:38;29.80;99.90
42663;DHT22;44330;51.360;6.686;2022-07-17T14:17:04;30.10;99.90
42663;DHT22;44330;51.360;6.686;2022-07-17T14:19:29;30.20;99.90
42663;DHT22;44330;51.360;6.686;2022-07-17T14:21:55;30.30;99.90
42663;DHT22;44330;51.360;6.686;2022-07-17T14:24:21;29.60;99.90
42663;DHT22;44330;51.360;6.686;2022-07-17T14:26:46;29.30;99.90
42663;DHT22;44330;51.360;6.686;2022-07-17T14:29:14;29.70;99.90
42663;DHT22;44330;51.360;6.686;2022-07-17T14:31:39;29.70;99.90
42663;DHT22;44330;51.360;6.686;2022-07-17T14:34:05;29.90;99.90
42663;DHT22;44330;51.360;6.686;2022-07-17T14:36:31;30.50;99.90
42663;DHT22;44330;51.360;6.686;2022-07-17T14:38:57;30.70;99.90
42663;DHT22;44330;51.360;6.686;2022-07-17T14:41:22;30.80;99.90
42663;DHT22;44330;51.360;6.686;2022-07-17T14:43:48;30.60;99.90
42663;DHT22;44330;51.360;6.686;2022-07-17T14:46:14;30.50;99.90
42663;DHT22;44330;51.360;6.686;2022-07-17T14:48:40;29.90;99.90
42663;DHT22;44330;51.360;6.686;2022-07-17T14:51:05;28.80;99.90
42663;DHT22;44330;51.360;6.686;2022-07-17T14:53:31;29.10;99.90
42663;DHT22;44330;51.360;6.686;2022-07-17T14:55:57;29.10;99.90
42663;DHT22;44330;51.360;6.686;2022-07-17T14:58:23;29.20;99.90
42663;DHT22;44330;51.360;6.686;2022-07-17T15:00:48;29.40;99.90
42663;DHT22;44330;51.360;6.686;2022-07-17T15:03:14;29.70;99.90
42663;DHT22;44330;51.360;6.686;2022-07-17T15:05:40;29.80;99.90
42663;DHT22;44330;51.360;6.686;2022-07-17T15:08:05;29.60;99.90
42663;DHT22;44330;51.360;6.686;2022-07-17T15:10:31;28.70;99.90
42663;DHT22;44330;51.360;6.686;2022-07-17T15:12:58;28.50;99.90
42663;DHT22;44330;51.360;6.686;2022-07-17T15:15:24;28.50;99.90
42663;DHT22;44330;51.360;6.686;2022-07-17T15:17:49;28.30;99.90
42663;DHT22;44330;51.360;6.686;2022-07-17T15:20:15;28.10;99.90
42663;DHT22;44330;51.360;6.686;2022-07-17T15:22:40;28.10;99.90
42663;DHT22;44330;51.360;6.686;2022-07-17T15:25:06;28.20;99.90
42663;DHT22;44330;51.360;6.686;2022-07-17T15:27:32;28.30;99.90
42663;DHT22;44330;51.360;6.686;2022-07-17T15:29:58;28.20;99.90
42663;DHT22;44330;51.360;6.686;2022-07-17T15:32:23;28.40;99.90
42663;DHT22;44330;51.360;6.686;2022-07-17T15:34:49;28.80;99.90
42663;DHT22;44330;51.360;6.686;2022-07-17T15:37:14;29.30;99.90
42663;DHT22;44330;51.360;6.686;2022-07-17T15:39:40;29.40;99.90
42663;DHT22;44330;51.360;6.686;2022-07-17T15:42:05;29.70;99.90
42663;DHT22;44330;51.360;6.686;2022-07-17T15:44:31;29.80;99.90
42663;DHT22;44330;51.360;6.686;2022-07-17T15:46:56;29.50;99.90
42663;DHT22;44330;51.360;6.686;2022-07-17T15:49:22;29.80;99.90
42663;DHT22;44330;51.360;6.686;2022-07-17T15:51:48;30.00;99.90